createdAt,value
2022-10-17T00:02:53.807Z,7
2022-10-17T00:07:35.131Z,7
2022-10-17T00:12:16.438Z,7
2022-10-17T00:16:57.735Z,7
2022-10-17T00:21:39.948Z,7
2022-10-17T00:26:22.302Z,7
2022-10-17T00:31:04.570Z,7
2022-10-17T00:35:46.776Z,7
2022-10-17T00:40:29.089Z,7
2022-10-17T00:45:11.413Z,7
2022-10-17T00:49:53.674Z,7
2022-10-17T00:54:35.925Z,7
2022-10-17T00:59:18.319Z,3
2022-10-17T01:04:00.444Z,3
2022-10-17T01:13:25.072Z,3
2022-10-17T01:18:06.375Z,3
2022-10-17T01:22:48.618Z,3
2022-10-17T01:27:30.901Z,3
2022-10-17T01:32:13.231Z,3
2022-10-17T01:36:55.465Z,3
2022-10-17T01:41:37.774Z,3
2022-10-17T01:46:20.078Z,3
2022-10-17T01:51:02.258Z,3
2022-10-17T01:55:43.649Z,3
2022-10-17T02:00:24.876Z,3
2022-10-17T02:05:06.213Z,3
2022-10-17T02:09:47.493Z,3
2022-10-17T02:14:28.838Z,3
2022-10-17T02:19:10.142Z,3
2022-10-17T02:23:52.457Z,3
2022-10-17T02:28:34.645Z,3
2022-10-17T02:33:17.000Z,3
2022-10-17T02:37:59.350Z,3
2022-10-17T02:42:41.481Z,3
2022-10-17T02:47:23.825Z,3
2022-10-17T02:52:06.094Z,3
2022-10-17T02:56:48.306Z,3
2022-10-17T03:01:30.628Z,3
2022-10-17T03:06:12.926Z,3
2022-10-17T03:10:55.316Z,3
2022-10-17T03:15:37.446Z,3
2022-10-17T03:20:18.813Z,3
2022-10-17T03:25:01.066Z,3
2022-10-17T03:29:43.279Z,3
2022-10-17T03:34:25.595Z,3
2022-10-17T03:39:07.923Z,3
2022-10-17T03:43:50.114Z,3
2022-10-17T03:48:32.475Z,3
2022-10-17T03:53:13.734Z,123
2022-10-17T03:57:55.055Z,123
2022-10-17T04:02:37.352Z,3
2022-10-17T04:07:19.603Z,123
2022-10-17T04:12:01.894Z,3
2022-10-17T04:16:44.186Z,3
2022-10-17T04:21:26.398Z,3
2022-10-17T04:26:08.713Z,123
2022-10-17T04:30:51.027Z,3
2022-10-17T04:35:33.347Z,3
2022-10-17T04:40:15.545Z,3
2022-10-17T04:44:57.858Z,3
2022-10-17T04:49:40.181Z,3
2022-10-17T04:54:22.407Z,3
2022-10-17T04:59:03.683Z,3
2022-10-17T05:03:45.998Z,3
2022-10-17T05:08:28.309Z,4
2022-10-17T05:13:10.517Z,15
2022-10-17T05:17:52.831Z,19
2022-10-17T05:22:35.141Z,51
2022-10-17T05:27:17.349Z,95
2022-10-17T05:31:58.685Z,214
2022-10-17T05:36:39.999Z,330
2022-10-17T05:41:21.282Z,456
2022-10-17T05:46:02.592Z,609
2022-10-17T05:50:45.025Z,832
2022-10-17T05:55:27.113Z,1119
2022-10-17T06:00:09.493Z,1360
2022-10-17T06:04:51.818Z,1662
2022-10-17T06:09:33.999Z,2037
2022-10-17T06:14:16.275Z,2286
2022-10-17T06:18:58.614Z,2509
2022-10-17T06:23:40.815Z,2742
2022-10-17T06:28:23.136Z,3089
2022-10-17T06:33:05.437Z,3306
2022-10-17T06:37:47.734Z,3586
2022-10-17T06:42:29.986Z,3842
2022-10-17T06:47:11.244Z,4088
2022-10-17T06:51:53.558Z,4269
2022-10-17T06:56:35.762Z,4567
2022-10-17T07:01:18.158Z,5012
2022-10-17T07:06:00.487Z,5399
2022-10-17T07:10:42.625Z,5568
2022-10-17T07:15:24.923Z,5919
2022-10-17T07:20:06.320Z,6205
2022-10-17T07:24:47.555Z,6347
2022-10-17T07:29:28.842Z,6440
2022-10-17T07:34:10.150Z,6484
2022-10-17T07:38:52.463Z,6383
2022-10-17T07:43:34.675Z,6470
2022-10-17T07:48:17.035Z,6431
2022-10-17T07:52:59.310Z,6286
2022-10-17T07:57:41.510Z,6351
2022-10-17T08:02:23.819Z,7065
2022-10-17T08:07:06.137Z,7332
2022-10-17T08:11:48.368Z,7801
2022-10-17T08:16:30.704Z,8383
2022-10-17T08:21:12.971Z,8478
2022-10-17T08:25:55.177Z,8774
2022-10-17T08:30:37.489Z,19650
2022-10-17T08:35:18.834Z,9434
2022-10-17T08:40:01.047Z,13235
2022-10-17T08:44:43.325Z,9934
2022-10-17T08:49:25.638Z,11594
2022-10-17T08:54:07.884Z,13391
2022-10-17T08:58:50.208Z,11254
2022-10-17T09:03:32.515Z,18768
2022-10-17T09:08:13.779Z,13626
2022-10-17T09:12:55.088Z,13110
2022-10-17T09:17:36.399Z,11572
2022-10-17T09:22:17.771Z,14606
2022-10-17T09:26:59.922Z,13408
2022-10-17T09:31:42.254Z,17801
2022-10-17T09:36:24.642Z,50651
2022-10-17T09:41:06.859Z,49287
2022-10-17T09:45:49.205Z,48010
2022-10-17T09:50:31.506Z,49836
2022-10-17T09:55:13.750Z,49678
2022-10-17T09:59:56.043Z,56606
2022-10-17T10:04:38.358Z,60063
2022-10-17T10:09:20.573Z,61609
2022-10-17T10:14:02.874Z,59501
2022-10-17T10:18:45.194Z,59867
2022-10-17T10:23:26.516Z,64798
2022-10-17T10:28:08.721Z,59357
2022-10-17T10:32:51.017Z,898
2022-10-17T10:37:33.226Z,15279
2022-10-17T10:42:15.551Z,15472
2022-10-17T10:46:57.858Z,14889
2022-10-17T10:51:40.197Z,3649
2022-10-17T10:56:21.505Z,62471
2022-10-17T11:01:02.802Z,9928
2022-10-17T11:05:44.104Z,64367
2022-10-17T11:10:25.415Z,56831
2022-10-17T11:15:07.658Z,64561
2022-10-17T11:19:49.942Z,2238
2022-10-17T11:24:32.262Z,10229
2022-10-17T11:29:14.481Z,62477
2022-10-17T11:33:56.751Z,8161
2022-10-17T11:38:39.097Z,1793
2022-10-17T11:43:21.390Z,2938
2022-10-17T11:48:03.620Z,60899
2022-10-17T11:52:45.913Z,9622
2022-10-17T11:57:28.252Z,10479
2022-10-17T12:02:10.462Z,62990
2022-10-17T12:06:52.724Z,53907
2022-10-17T12:11:34.078Z,65195
2022-10-17T12:16:16.376Z,7206
2022-10-17T12:20:58.611Z,58182
2022-10-17T12:25:40.908Z,59531
2022-10-17T12:30:23.213Z,1002
2022-10-17T12:35:05.505Z,57454
2022-10-17T12:39:47.748Z,54221
2022-10-17T12:44:29.037Z,50973
2022-10-17T12:49:10.329Z,44898
2022-10-17T12:53:51.650Z,52913
2022-10-17T12:58:32.955Z,58730
2022-10-17T13:03:15.149Z,52325
2022-10-17T13:07:57.579Z,50763
2022-10-17T13:12:39.675Z,46046
2022-10-17T13:17:22.126Z,51862
2022-10-17T13:22:04.298Z,49302
2022-10-17T13:26:46.662Z,46687
2022-10-17T13:31:28.978Z,47076
2022-10-17T13:36:11.284Z,44318
2022-10-17T13:40:53.602Z,40792
2022-10-17T13:45:35.785Z,42187
2022-10-17T13:50:18.121Z,37884
2022-10-17T13:55:00.420Z,36289
2022-10-17T13:59:41.736Z,33758
2022-10-17T14:04:23.941Z,29978
2022-10-17T14:09:06.259Z,29941
2022-10-17T14:13:48.585Z,25517
2022-10-17T14:18:30.796Z,19601
2022-10-17T14:23:13.020Z,18274
2022-10-17T14:27:55.273Z,14760
2022-10-17T14:32:36.620Z,17520
2022-10-17T14:37:17.896Z,13293
2022-10-17T14:42:00.105Z,10266
2022-10-17T14:46:42.417Z,9836
2022-10-17T14:51:24.762Z,9602
2022-10-17T14:56:06.936Z,9385
2022-10-17T15:00:49.336Z,9790
2022-10-17T15:05:31.565Z,9588
2022-10-17T15:10:13.770Z,8215
2022-10-17T15:14:56.083Z,8145
2022-10-17T15:19:38.401Z,7409
2022-10-17T15:24:20.602Z,7408
2022-10-17T15:29:02.916Z,6515
2022-10-17T15:33:45.229Z,6116
2022-10-17T15:38:26.538Z,5387
2022-10-17T15:43:08.753Z,4568
2022-10-17T15:47:51.057Z,3753
2022-10-17T15:52:33.373Z,3010
2022-10-17T15:57:15.582Z,2405
2022-10-17T16:01:57.892Z,1836
2022-10-17T16:06:40.205Z,1402
2022-10-17T16:11:21.516Z,1064
2022-10-17T16:16:02.839Z,705
2022-10-17T16:20:44.141Z,449
2022-10-17T16:25:25.341Z,264
2022-10-17T16:30:07.752Z,159
2022-10-17T16:34:48.967Z,90
2022-10-17T16:39:30.296Z,32
2022-10-17T16:44:12.580Z,20
2022-10-17T16:48:54.801Z,9
2022-10-17T16:53:37.110Z,9
2022-10-17T16:58:19.421Z,9
2022-10-17T17:03:01.635Z,9
2022-10-17T17:07:43.944Z,4
2022-10-17T17:12:26.254Z,4
2022-10-17T17:17:08.482Z,4
2022-10-17T17:21:50.778Z,9
2022-10-17T17:26:33.087Z,4
2022-10-17T17:31:15.298Z,4
2022-10-17T17:35:57.607Z,4
2022-10-17T17:40:38.914Z,9
2022-10-17T17:45:21.229Z,4
2022-10-17T17:50:03.442Z,4
2022-10-17T17:54:45.754Z,4
2022-10-17T17:59:28.067Z,4
2022-10-17T18:04:10.274Z,4
2022-10-17T18:08:52.594Z,4
2022-10-17T18:13:33.901Z,9
2022-10-17T18:18:15.209Z,9
2022-10-17T18:22:57.422Z,9
2022-10-17T18:27:38.737Z,9
2022-10-17T18:32:20.044Z,9
2022-10-17T18:37:02.349Z,9
2022-10-17T18:41:44.663Z,9
2022-10-17T18:46:26.910Z,9
2022-10-17T18:51:09.185Z,9
2022-10-17T18:55:51.518Z,9
2022-10-17T19:00:33.721Z,9
2022-10-17T19:05:16.019Z,9
2022-10-17T19:09:58.329Z,9
2022-10-17T19:14:40.535Z,9
2022-10-17T19:19:22.847Z,9
2022-10-17T19:24:05.165Z,4
2022-10-17T19:28:47.371Z,9
2022-10-17T19:33:28.676Z,9
2022-10-17T19:38:10.991Z,9
2022-10-17T19:42:53.305Z,9
2022-10-17T19:47:35.512Z,9
2022-10-17T19:52:17.827Z,9
2022-10-17T19:57:00.141Z,9
2022-10-17T20:01:42.354Z,9
2022-10-17T20:06:23.731Z,9
2022-10-17T20:11:04.963Z,9
2022-10-17T20:15:47.272Z,4
2022-10-17T20:20:28.579Z,4
2022-10-17T20:25:09.893Z,4
2022-10-17T20:29:52.109Z,4
2022-10-17T20:34:34.425Z,9
2022-10-17T20:39:16.738Z,9
2022-10-17T20:43:59.037Z,9
2022-10-17T20:48:41.251Z,4
2022-10-17T20:53:23.568Z,9
2022-10-17T20:58:05.883Z,4
2022-10-17T21:02:48.107Z,4
2022-10-17T21:07:30.386Z,4
2022-10-17T21:12:12.706Z,9
2022-10-17T21:16:54.909Z,9
2022-10-17T21:21:37.229Z,9
2022-10-17T21:26:18.537Z,9
2022-10-17T21:31:00.850Z,4
2022-10-17T21:35:43.075Z,9
2022-10-17T21:40:25.366Z,9
2022-10-17T21:45:07.685Z,9
2022-10-17T21:49:49.939Z,9
2022-10-17T21:54:32.195Z,9
2022-10-17T21:59:13.513Z,9
2022-10-17T22:03:54.817Z,9
2022-10-17T22:08:37.131Z,9
2022-10-17T22:13:18.441Z,9
2022-10-17T22:17:59.649Z,9
2022-10-17T22:22:41.956Z,4
2022-10-17T22:27:24.281Z,4
2022-10-17T22:32:06.480Z,4
2022-10-17T22:36:48.804Z,4
2022-10-17T22:41:31.132Z,4
2022-10-17T22:46:13.418Z,4
2022-10-17T22:50:55.629Z,4
2022-10-17T22:55:37.931Z,4
2022-10-17T23:00:20.357Z,4
2022-10-17T23:05:02.471Z,4
2022-10-17T23:09:44.767Z,9
2022-10-17T23:14:27.078Z,9
2022-10-17T23:19:08.282Z,9
2022-10-17T23:23:50.608Z,9
2022-10-17T23:28:32.909Z,9
2022-10-17T23:33:15.284Z,9
2022-10-17T23:37:57.429Z,9
2022-10-17T23:42:39.740Z,9
2022-10-17T23:47:22.063Z,4
2022-10-17T23:52:03.365Z,4
2022-10-17T23:56:44.572Z,4
